Time;durP1;ratioP1;P1;durP2;ratioP2;P2;SDS_P1;SDS_P2;PMS_P1;PMS_P2;Temp;Humidity;BMP_temperature;BMP_pressure;BME280_temperature;BME280_humidity;BME280_pressure;Samples;Min_cycle;Max_cycle;Signal;HPM_P1;HPM_P2
2021/10/01 00:00:14;;;;;;;3.00;2.33;;;15.60;99.90;;;;;;6249846;28;20443;-64
2021/10/01 00:03:18;;;;;;;3.30;3.00;;;15.60;99.90;;;;;;6249992;28;20438;-64
2021/10/01 00:06:21;;;;;;;2.20;2.10;;;15.60;99.90;;;;;;6245717;28;20466;-64
2021/10/01 00:09:24;;;;;;;1.97;1.87;;;15.60;99.90;;;;;;6250025;28;20482;-64
2021/10/01 00:12:27;;;;;;;2.53;2.33;;;15.60;99.90;;;;;;6250003;28;20489;-64
2021/10/01 00:15:32;;;;;;;2.73;2.33;;;15.60;99.90;;;;;;6249961;28;20462;-64
2021/10/01 00:18:37;;;;;;;4.10;2.63;;;15.60;99.90;;;;;;6250030;28;20554;-64
2021/10/01 00:21:41;;;;;;;2.70;2.30;;;15.60;99.90;;;;;;6249997;28;20532;-64
2021/10/01 00:24:44;;;;;;;2.93;2.40;;;15.60;99.90;;;;;;6250056;28;20490;-64
2021/10/01 00:27:47;;;;;;;2.53;2.33;;;15.60;99.90;;;;;;6250189;28;20481;-64
2021/10/01 00:30:52;;;;;;;3.73;2.00;;;15.50;99.90;;;;;;6249741;28;20475;-64
2021/10/01 00:33:55;;;;;;;2.10;1.90;;;15.50;99.90;;;;;;6249805;28;20478;-65
2021/10/01 00:36:58;;;;;;;2.43;2.03;;;15.50;99.90;;;;;;6249950;28;20467;-64
2021/10/01 00:40:01;;;;;;;2.47;2.27;;;15.40;99.90;;;;;;6249718;28;20989;-64
2021/10/01 00:43:04;;;;;;;2.00;1.90;;;15.40;99.90;;;;;;6250265;28;20477;-64
2021/10/01 00:46:09;;;;;;;2.93;2.20;;;15.40;99.90;;;;;;6249508;28;20478;-65
2021/10/01 00:49:12;;;;;;;2.30;2.03;;;15.30;99.90;;;;;;6252841;28;20486;-65
2021/10/01 00:52:16;;;;;;;6.63;2.33;;;15.30;99.90;;;;;;6253873;28;20503;-64
2021/10/01 00:55:20;;;;;;;2.70;2.50;;;15.30;99.90;;;;;;6254220;28;20475;-65
2021/10/01 00:58:23;;;;;;;3.80;2.27;;;15.30;99.90;;;;;;6254293;28;20477;-64
2021/10/01 01:01:27;;;;;;;2.20;2.00;;;15.30;99.90;;;;;;6254037;28;20482;-64
2021/10/01 01:04:31;;;;;;;2.70;2.20;;;15.20;99.90;;;;;;6254113;28;20485;-64
2021/10/01 01:07:39;;;;;;;2.70;2.50;;;15.10;99.90;;;;;;6253421;28;20478;-64
2021/10/01 01:10:49;;;;;;;3.07;2.17;;;15.10;99.90;;;;;;6253680;28;20489;-64
2021/10/01 01:13:58;;;;;;;3.53;2.50;;;15.10;99.90;;;;;;6253440;28;20494;-64
2021/10/01 01:17:06;;;;;;;2.60;2.07;;;15.00;99.90;;;;;;6253999;28;20483;-64
2021/10/01 01:20:13;;;;;;;3.27;2.10;;;15.00;99.90;;;;;;6253174;28;20474;-64
2021/10/01 01:23:28;;;;;;;2.90;2.30;;;14.90;99.90;;;;;;6253651;28;20472;-64
2021/10/01 01:27:07;;;;;;;1.70;1.60;;;14.90;99.90;;;;;;6253397;28;20471;-64
2021/10/01 01:30:16;;;;;;;1.93;1.83;;;14.80;99.90;;;;;;6251526;28;20460;-64
2021/10/01 01:33:24;;;;;;;2.07;1.87;;;14.80;99.90;;;;;;6254119;28;20462;-64
2021/10/01 01:36:29;;;;;;;1.93;1.83;;;14.70;99.90;;;;;;6252730;28;20828;-64
2021/10/01 01:39:35;;;;;;;2.40;2.20;;;14.60;99.90;;;;;;6253447;28;20463;-64
2021/10/01 01:42:40;;;;;;;3.53;2.43;;;14.60;99.90;;;;;;6252917;28;20485;-64
2021/10/01 01:45:45;;;;;;;2.20;2.00;;;14.60;99.90;;;;;;6252581;28;20963;-64
2021/10/01 01:48:50;;;;;;;2.57;2.37;;;14.50;99.90;;;;;;6252598;28;20490;-64
2021/10/01 01:51:54;;;;;;;3.20;2.00;;;14.50;99.90;;;;;;6252329;28;20799;-64
2021/10/01 01:54:58;;;;;;;3.43;2.27;;;14.40;99.90;;;;;;6252682;28;20475;-64
2021/10/01 01:58:02;;;;;;;4.53;2.47;;;14.30;99.90;;;;;;6252761;28;20951;-64
2021/10/01 02:01:07;;;;;;;2.80;2.40;;;14.20;99.90;;;;;;6252412;28;20490;-64
2021/10/01 02:04:14;;;;;;;2.93;2.20;;;14.20;99.90;;;;;;6252956;28;20778;-64
2021/10/01 02:07:18;;;;;;;2.00;1.87;;;14.20;99.90;;;;;;6252377;28;20463;-64
2021/10/01 02:10:22;;;;;;;1.70;1.60;;;14.20;99.90;;;;;;6252203;28;20593;-64
2021/10/01 02:13:26;;;;;;;2.47;2.20;;;14.10;99.90;;;;;;6252534;28;20478;-64
2021/10/01 02:16:30;;;;;;;2.47;2.30;;;14.10;99.90;;;;;;6243009;28;20996;-64
2021/10/01 02:19:36;;;;;;;2.00;1.90;;;14.00;99.90;;;;;;6252290;28;20471;-64
2021/10/01 02:22:40;;;;;;;2.27;2.10;;;13.90;99.90;;;;;;6251778;28;20471;-64
2021/10/01 02:29:19;;;;;;;2.67;2.10;;;13.80;99.90;;;;;;6251819;28;20497;-64
2021/10/01 02:32:31;;;;;;;4.47;2.17;;;13.80;99.90;;;;;;6251807;28;20554;-64
2021/10/01 02:35:36;;;;;;;2.80;2.20;;;13.70;99.90;;;;;;6251172;28;20482;-64
2021/10/01 02:38:39;;;;;;;3.23;2.20;;;13.60;99.90;;;;;;6251527;28;20481;-64
2021/10/01 02:41:42;;;;;;;2.63;2.30;;;13.50;99.90;;;;;;6251136;28;20486;-64
2021/10/01 02:44:47;;;;;;;2.20;2.00;;;13.50;99.90;;;;;;6250956;28;20466;-64
2021/10/01 02:47:51;;;;;;;1.93;1.83;;;13.40;99.90;;;;;;6251043;28;20741;-64
2021/10/01 02:51:01;;;;;;;2.20;2.10;;;13.40;99.90;;;;;;6250925;28;20490;-64
2021/10/01 02:54:08;;;;;;;3.67;2.27;;;13.40;99.90;;;;;;6251030;28;20447;-64
2021/10/01 02:57:18;;;;;;;2.30;2.10;;;13.30;99.90;;;;;;6251146;28;20444;-64
2021/10/01 03:00:22;;;;;;;6.90;2.87;;;13.20;99.90;;;;;;6251097;28;20763;-64
2021/10/01 03:03:31;;;;;;;2.73;2.00;;;13.20;99.90;;;;;;6252031;28;20455;-64
2021/10/01 03:06:40;;;;;;;2.60;2.40;;;13.10;99.90;;;;;;6250604;28;20463;-64
2021/10/01 03:09:43;;;;;;;2.70;2.50;;;13.20;99.90;;;;;;6250818;28;20460;-64
2021/10/01 03:12:48;;;;;;;2.10;1.90;;;13.10;99.90;;;;;;6250686;28;20494;-64
2021/10/01 03:15:53;;;;;;;5.27;2.40;;;13.10;99.90;;;;;;6250703;28;20482;-64
2021/10/01 03:18:56;;;;;;;3.00;1.83;;;13.10;99.90;;;;;;6246106;28;20475;-64
2021/10/01 03:22:02;;;;;;;3.47;2.20;;;13.10;99.90;;;;;;6250845;28;20483;-64
2021/10/01 03:25:07;;;;;;;2.53;1.93;;;13.00;99.90;;;;;;6250540;28;20525;-65
2021/10/01 03:28:11;;;;;;;3.10;2.20;;;13.00;99.90;;;;;;6250538;28;20466;-64
2021/10/01 03:31:15;;;;;;;4.43;2.00;;;13.00;99.90;;;;;;6250290;28;20939;-64
2021/10/01 03:34:18;;;;;;;2.50;2.30;;;13.00;99.90;;;;;;6250443;28;20521;-64
2021/10/01 03:37:23;;;;;;;3.63;2.40;;;12.90;99.90;;;;;;6250039;28;20981;-64
2021/10/01 03:40:31;;;;;;;4.63;2.40;;;12.80;99.90;;;;;;6250264;28;20486;-64
2021/10/01 03:43:34;;;;;;;2.73;2.23;;;12.80;99.90;;;;;;6250865;28;20486;-64
2021/10/01 03:46:38;;;;;;;2.93;2.27;;;12.80;99.90;;;;;;6249804;28;20475;-64
2021/10/01 03:49:41;;;;;;;4.60;2.67;;;12.70;99.90;;;;;;6250545;28;20478;-64
2021/10/01 03:52:46;;;;;;;2.70;2.50;;;12.70;99.90;;;;;;6250371;28;20474;-64
2021/10/01 03:55:49;;;;;;;2.33;2.23;;;12.70;99.90;;;;;;6250866;28;20486;-64
2021/10/01 03:58:52;;;;;;;6.90;2.53;;;12.70;99.90;;;;;;6250950;28;20478;-64
2021/10/01 04:01:55;;;;;;;3.70;2.47;;;12.60;99.90;;;;;;6250187;28;20490;-64
2021/10/01 04:04:58;;;;;;;6.83;3.17;;;12.60;99.90;;;;;;6250311;28;20887;-63
2021/10/01 04:08:09;;;;;;;4.60;2.67;;;12.50;99.90;;;;;;6250484;28;20463;-63
2021/10/01 04:11:12;;;;;;;2.63;2.43;;;12.50;99.90;;;;;;6250436;28;20479;-63
2021/10/01 04:14:15;;;;;;;3.43;2.30;;;12.40;99.90;;;;;;6250285;28;20475;-63
2021/10/01 04:17:18;;;;;;;3.10;2.40;;;12.40;99.90;;;;;;6250238;28;20471;-63
2021/10/01 04:20:22;;;;;;;3.03;2.73;;;12.40;99.90;;;;;;6249768;28;20470;-63
2021/10/01 04:23:26;;;;;;;2.73;2.30;;;12.30;99.90;;;;;;6247907;28;20486;-63
2021/10/01 04:26:29;;;;;;;3.00;2.80;;;12.30;99.90;;;;;;6254636;28;20812;-63
2021/10/01 04:29:32;;;;;;;3.47;2.47;;;12.30;99.90;;;;;;6254969;28;20470;-64
2021/10/01 04:32:39;;;;;;;3.00;2.80;;;12.30;99.90;;;;;;6255112;28;20482;-64
2021/10/01 04:35:42;;;;;;;4.70;2.30;;;12.20;99.90;;;;;;6254682;28;20474;-64
2021/10/01 04:38:47;;;;;;;2.50;2.30;;;12.20;99.90;;;;;;6254559;28;20485;-64
2021/10/01 04:41:50;;;;;;;2.63;2.47;;;12.20;99.90;;;;;;6254483;28;20474;-64
2021/10/01 04:44:53;;;;;;;2.23;2.13;;;12.20;99.90;;;;;;6254711;28;20470;-64
2021/10/01 04:47:56;;;;;;;2.37;2.17;;;12.20;99.90;;;;;;6254735;28;20478;-64
2021/10/01 04:50:59;;;;;;;4.30;2.80;;;12.10;99.90;;;;;;6254193;28;20506;-64
2021/10/01 04:54:04;;;;;;;2.83;2.50;;;12.10;99.90;;;;;;6254375;28;20940;-63
2021/10/01 04:57:08;;;;;;;2.83;2.63;;;12.10;99.90;;;;;;6253883;28;20448;-64
2021/10/01 05:00:13;;;;;;;2.90;2.57;;;12.10;99.90;;;;;;6254351;28;20841;-64
2021/10/01 05:03:16;;;;;;;3.07;2.80;;;12.00;99.90;;;;;;6253969;28;20443;-64
2021/10/01 05:06:19;;;;;;;3.10;2.90;;;12.00;99.90;;;;;;6253769;28;20450;-64
2021/10/01 05:09:24;;;;;;;3.07;2.67;;;12.00;99.90;;;;;;6254133;28;20470;-64
2021/10/01 05:12:27;;;;;;;2.90;2.60;;;12.00;99.90;;;;;;6253805;28;20466;-64
2021/10/01 05:15:30;;;;;;;3.77;3.03;;;11.90;99.90;;;;;;6253985;28;20477;-64
2021/10/01 05:18:33;;;;;;;2.67;2.13;;;12.00;99.90;;;;;;6253911;28;20475;-64
2021/10/01 05:21:37;;;;;;;3.17;2.87;;;12.00;99.90;;;;;;6253194;28;20593;-64
2021/10/01 05:24:41;;;;;;;3.20;2.77;;;12.00;99.90;;;;;;6253548;28;20501;-64
2021/10/01 05:27:44;;;;;;;3.60;2.70;;;12.00;99.90;;;;;;6253278;28;20490;-63
2021/10/01 05:30:48;;;;;;;3.30;3.00;;;11.90;99.90;;;;;;6253134;28;20467;-63
2021/10/01 05:33:51;;;;;;;4.27;3.20;;;11.90;99.90;;;;;;6253024;28;20471;-63
2021/10/01 05:36:54;;;;;;;3.17;2.77;;;11.80;99.90;;;;;;6253217;28;20471;-63
2021/10/01 05:39:58;;;;;;;4.77;3.37;;;11.90;99.90;;;;;;6253576;28;20485;-63
2021/10/01 05:43:02;;;;;;;4.53;4.13;;;11.90;99.90;;;;;;6252689;28;20483;-63
2021/10/01 05:46:05;;;;;;;4.17;3.60;;;11.90;99.90;;;;;;6252200;28;20979;-63
2021/10/01 05:49:11;;;;;;;4.80;3.00;;;11.90;99.90;;;;;;6252459;28;20481;-63
2021/10/01 05:52:23;;;;;;;3.87;3.47;;;11.90;99.90;;;;;;6252110;28;20471;-63
2021/10/01 05:55:28;;;;;;;5.23;3.70;;;12.00;99.90;;;;;;6252898;28;20475;-63
2021/10/01 05:58:31;;;;;;;3.77;3.33;;;12.00;99.90;;;;;;6252886;28;20482;-63
2021/10/01 06:01:35;;;;;;;3.23;2.93;;;12.20;99.90;;;;;;6252325;28;20467;-63
2021/10/01 06:04:38;;;;;;;4.87;2.80;;;12.20;99.90;;;;;;6251828;28;20467;-63
2021/10/01 06:07:43;;;;;;;4.17;3.67;;;12.30;99.90;;;;;;6252715;28;20471;-63
2021/10/01 06:10:47;;;;;;;4.73;4.33;;;12.30;99.90;;;;;;6252090;28;20475;-64
2021/10/01 06:13:51;;;;;;;5.13;4.63;;;12.30;99.90;;;;;;6252426;28;20471;-64
2021/10/01 06:16:54;;;;;;;4.93;4.40;;;12.40;99.90;;;;;;6252241;28;20463;-64
2021/10/01 06:20:01;;;;;;;4.93;4.20;;;12.30;99.90;;;;;;6252357;28;20595;-64
2021/10/01 06:23:04;;;;;;;5.67;4.60;;;12.30;99.90;;;;;;6252169;28;20478;-64
2021/10/01 06:26:09;;;;;;;13.10;4.90;;;12.30;99.90;;;;;;6247615;28;20469;-64
2021/10/01 06:29:12;;;;;;;5.10;4.40;;;12.30;99.90;;;;;;6252287;28;20498;-64
2021/10/01 06:32:15;;;;;;;5.93;4.10;;;12.40;99.90;;;;;;6251927;28;20560;-64
2021/10/01 06:35:18;;;;;;;5.03;4.30;;;12.50;99.90;;;;;;6252098;28;20475;-64
2021/10/01 06:38:22;;;;;;;5.73;4.53;;;12.60;99.90;;;;;;6251894;28;20475;-64
2021/10/01 06:41:26;;;;;;;5.47;4.30;;;12.70;99.90;;;;;;6251579;28;20479;-64
2021/10/01 06:44:32;;;;;;;5.77;4.10;;;12.80;99.90;;;;;;6250849;28;20980;-64
2021/10/01 06:47:41;;;;;;;6.00;4.67;;;12.90;99.90;;;;;;6251062;28;20470;-64
2021/10/01 06:51:12;;;;;;;4.33;4.00;;;13.10;99.90;;;;;;6250944;28;20475;-64
2021/10/01 08:18:42;;;;;;;3.40;2.85;;;39.50;28.80;;;;;;6254708;28;20563;-65
2021/10/01 08:21:48;;;;;;;3.00;2.70;;;39.60;27.90;;;;;;6254924;28;20251;-64
2021/10/01 08:24:51;;;;;;;6.18;3.75;;;39.90;27.90;;;;;;6254649;28;20234;-65
2021/10/01 08:27:54;;;;;;;5.70;3.38;;;40.30;27.50;;;;;;6254550;28;20228;-65
2021/10/01 08:30:58;;;;;;;3.78;3.35;;;41.10;26.50;;;;;;6254399;28;20243;-64
2021/10/01 08:34:01;;;;;;;4.80;3.33;;;41.00;25.90;;;;;;6254537;28;20281;-64
2021/10/01 08:37:06;;;;;;;3.67;3.08;;;41.40;25.40;;;;;;6255062;28;20243;-65
2021/10/01 08:40:10;;;;;;;3.42;3.22;;;42.20;25.10;;;;;;6254833;28;20228;-65
2021/10/01 08:43:14;;;;;;;3.13;2.92;;;42.80;24.30;;;;;;6253950;28;20242;-65
2021/10/01 08:46:18;;;;;;;3.80;2.92;;;42.60;24.40;;;;;;6253571;28;20231;-65
2021/10/01 08:49:22;;;;;;;2.53;2.33;;;43.10;24.20;;;;;;6253972;28;20312;-65
2021/10/01 08:52:27;;;;;;;4.60;2.30;;;44.30;23.60;;;;;;6253545;28;20254;-65
2021/10/01 08:55:30;;;;;;;3.30;2.22;;;44.90;21.50;;;;;;6253781;28;20262;-65
2021/10/01 08:58:33;;;;;;;3.80;2.17;;;44.60;21.50;;;;;;6253860;28;20711;-65
2021/10/01 09:01:37;;;;;;;2.25;1.98;;;45.40;20.90;;;;;;6253455;28;20326;-65
2021/10/01 09:04:41;;;;;;;2.55;1.50;;;45.20;20.00;;;;;;6253378;28;20324;-65
2021/10/01 09:07:45;;;;;;;2.70;2.30;;;44.10;20.40;;;;;;6252522;28;20223;-66
2021/10/01 09:11:00;;;;;;;2.15;1.85;;;44.90;20.40;;;;;;6253469;28;20224;-66
2021/10/01 09:14:05;;;;;;;1.90;1.80;;;44.30;20.70;;;;;;6253252;28;20229;-66
2021/10/01 09:17:11;;;;;;;3.17;1.60;;;45.10;20.50;;;;;;6253236;28;20234;-65
2021/10/01 09:20:15;;;;;;;1.73;1.63;;;45.50;19.10;;;;;;6253770;28;20227;-65
2021/10/01 09:23:27;;;;;;;2.42;1.52;;;46.20;18.90;;;;;;6253572;28;20259;-65
2021/10/01 09:26:32;;;;;;;1.95;1.77;;;45.90;19.30;;;;;;6253043;28;20228;-65
2021/10/01 09:29:37;;;;;;;2.97;1.73;;;46.60;18.30;;;;;;6253232;28;20322;-65
2021/10/01 09:32:41;;;;;;;2.20;1.60;;;45.60;18.60;;;;;;6253224;28;20238;-65
2021/10/01 09:35:46;;;;;;;2.33;2.10;;;45.90;18.90;;;;;;6243461;28;20238;-65
2021/10/01 09:38:50;;;;;;;2.20;1.58;;;45.70;18.50;;;;;;6252888;28;20245;-64
2021/10/01 09:41:57;;;;;;;2.20;1.77;;;44.60;18.60;;;;;;6252668;28;20232;-66
2021/10/01 09:45:02;;;;;;;2.00;1.58;;;44.70;19.20;;;;;;6252791;28;20241;-65
2021/10/01 09:48:06;;;;;;;1.55;0.93;;;45.00;18.50;;;;;;6252642;28;20207;-65
2021/10/01 09:51:11;;;;;;;1.63;1.08;;;45.80;18.30;;;;;;6252070;28;20236;-65
2021/10/01 09:54:17;;;;;;;2.88;1.70;;;46.10;17.50;;;;;;6252208;28;20204;-66
2021/10/01 09:57:20;;;;;;;1.50;1.40;;;46.90;17.50;;;;;;6252960;28;20287;-66
2021/10/01 10:00:32;;;;;;;5.75;1.38;;;47.10;17.60;;;;;;6252235;28;20683;-66
2021/10/01 10:03:35;;;;;;;1.60;1.30;;;48.10;16.80;;;;;;6251908;28;20572;-66
2021/10/01 10:06:43;;;;;;;1.50;1.30;;;48.20;17.20;;;;;;6251865;28;20237;-66
2021/10/01 10:09:50;;;;;;;2.13;1.33;;;47.80;17.30;;;;;;6252664;28;20243;-65
2021/10/01 10:12:54;;;;;;;2.55;1.83;;;47.50;17.50;;;;;;6252076;28;20262;-65
2021/10/01 10:16:06;;;;;;;2.70;2.17;;;47.10;17.80;;;;;;6252113;28;20294;-66
2021/10/01 10:19:15;;;;;;;1.92;1.27;;;47.20;18.30;;;;;;6251738;28;20312;-66
2021/10/01 10:22:19;;;;;;;2.28;1.67;;;47.80;17.30;;;;;;6251817;28;20234;-65
2021/10/01 10:25:24;;;;;;;4.63;1.50;;;48.90;17.10;;;;;;6251631;28;20229;-66
2021/10/01 10:28:27;;;;;;;2.03;1.63;;;46.90;17.50;;;;;;6252169;28;20234;-65
2021/10/01 10:31:33;;;;;;;1.80;1.70;;;44.30;19.00;;;;;;6251787;28;20233;-65
2021/10/01 10:34:50;;;;;;;1.92;1.48;;;44.00;19.40;;;;;;6252104;28;20697;-65
2021/10/01 10:37:54;;;;;;;1.90;1.55;;;45.70;18.80;;;;;;6251548;28;20242;-65
2021/10/01 10:41:20;;;;;;;3.70;1.63;;;47.40;17.50;;;;;;6251725;28;20745;-65
2021/10/01 10:44:41;;;;;;;1.00;0.90;;;46.90;17.20;;;;;;6251600;28;20298;-65
2021/10/01 10:48:00;;;;;;;2.15;1.50;;;45.60;17.20;;;;;;6252021;28;20232;-65
2021/10/01 10:51:04;;;;;;;1.20;1.00;;;45.90;16.70;;;;;;6251672;28;20235;-65
2021/10/01 10:54:08;;;;;;;0.90;0.70;;;44.20;17.30;;;;;;6251116;28;20205;-65
2021/10/01 10:57:35;;;;;;;1.25;1.10;;;44.40;17.40;;;;;;6251105;28;20210;-65
2021/10/01 11:00:41;;;;;;;1.63;1.10;;;45.00;17.40;;;;;;6250959;28;20615;-65
2021/10/01 11:03:45;;;;;;;1.00;0.90;;;44.60;17.60;;;;;;6250907;28;20230;-64
2021/10/01 11:06:52;;;;;;;1.17;0.93;;;46.50;17.00;;;;;;6251051;28;20228;-64
2021/10/01 11:09:56;;;;;;;1.40;1.00;;;47.80;16.50;;;;;;6250562;28;20707;-64
2021/10/01 11:13:25;;;;;;;1.10;0.75;;;48.20;16.20;;;;;;6251092;28;20241;-64
2021/10/01 11:16:29;;;;;;;1.25;0.60;;;48.90;15.40;;;;;;6250918;28;20226;-64
2021/10/01 11:19:37;;;;;;;2.15;0.93;;;48.10;15.20;;;;;;6250532;28;20239;-64
2021/10/01 11:22:42;;;;;;;1.55;1.10;;;47.50;15.90;;;;;;6250848;28;20248;-64
2021/10/01 11:25:48;;;;;;;1.30;1.08;;;47.80;15.80;;;;;;6250723;28;20238;-65
2021/10/01 11:28:53;;;;;;;1.80;1.02;;;48.70;15.30;;;;;;6250517;28;20228;-65
2021/10/01 11:31:58;;;;;;;1.13;1.02;;;48.80;15.40;;;;;;6250210;28;20229;-65
2021/10/01 11:35:02;;;;;;;5.07;1.30;;;46.50;16.30;;;;;;6250194;28;20680;-65
2021/10/01 11:38:08;;;;;;;1.85;1.23;;;45.30;17.00;;;;;;6250714;28;20229;-64
2021/10/01 11:41:14;;;;;;;1.10;1.00;;;46.50;16.70;;;;;;6250438;28;20232;-65
2021/10/01 11:44:24;;;;;;;0.90;0.82;;;47.20;16.10;;;;;;6241284;28;20245;-66
2021/10/01 11:47:27;;;;;;;1.00;0.90;;;48.70;15.90;;;;;;6250856;28;20560;-65
2021/10/01 11:50:32;;;;;;;1.02;0.93;;;49.30;15.50;;;;;;6250214;28;20242;-65
2021/10/01 11:53:36;;;;;;;1.45;0.90;;;46.90;15.80;;;;;;6250533;28;20245;-65
2021/10/01 11:56:42;;;;;;;1.77;1.05;;;47.00;15.90;;;;;;6250149;28;20239;-65
2021/10/01 11:59:52;;;;;;;1.20;0.85;;;47.80;16.00;;;;;;6249633;28;20317;-65
2021/10/01 12:02:56;;;;;;;1.23;1.00;;;48.10;15.20;;;;;;6249754;28;20254;-65
2021/10/01 12:05:59;;;;;;;1.35;1.10;;;46.40;16.10;;;;;;6249815;28;20232;-65
2021/10/01 12:09:06;;;;;;;1.27;0.90;;;46.70;16.10;;;;;;6250659;28;20228;-65
2021/10/01 12:12:10;;;;;;;2.42;1.55;;;47.10;16.00;;;;;;6249644;28;20244;-65
2021/10/01 12:15:14;;;;;;;1.75;1.05;;;48.10;15.70;;;;;;6250197;28;20225;-65
2021/10/01 12:18:29;;;;;;;1.70;1.00;;;47.30;15.20;;;;;;6249817;28;20538;-65
2021/10/01 12:21:35;;;;;;;1.33;1.02;;;43.50;17.50;;;;;;6249441;28;20562;-65
2021/10/01 12:24:43;;;;;;;1.83;1.17;;;42.50;18.20;;;;;;6249969;28;20231;-66
2021/10/01 12:27:49;;;;;;;2.70;0.82;;;42.70;18.20;;;;;;6249858;28;20324;-65
2021/10/01 12:31:05;;;;;;;1.17;0.80;;;44.00;17.90;;;;;;6249841;28;20242;-65
2021/10/01 12:34:10;;;;;;;2.75;1.25;;;45.20;17.40;;;;;;6249969;28;20231;-65
2021/10/01 12:37:16;;;;;;;1.17;0.90;;;44.90;16.90;;;;;;6249479;28;20301;-65
2021/10/01 12:40:19;;;;;;;2.13;1.00;;;44.40;17.10;;;;;;6249771;28;20242;-65
2021/10/01 12:43:22;;;;;;;1.20;1.00;;;43.50;18.00;;;;;;6250478;28;20233;-64
2021/10/01 12:46:36;;;;;;;3.00;1.08;;;44.10;18.00;;;;;;6253846;28;20231;-65
2021/10/01 12:49:39;;;;;;;2.95;1.20;;;45.60;17.30;;;;;;6254317;28;20609;-65
2021/10/01 12:52:45;;;;;;;2.38;0.88;;;46.50;17.00;;;;;;6248921;28;20236;-65
2021/10/01 12:55:50;;;;;;;3.75;1.00;;;46.40;16.70;;;;;;6254148;28;20683;-64
2021/10/01 12:58:56;;;;;;;1.40;0.90;;;46.30;16.30;;;;;;6253723;28;20239;-64
2021/10/01 13:02:12;;;;;;;0.95;0.85;;;44.70;16.50;;;;;;6252697;28;20288;-64
2021/10/01 13:05:21;;;;;;;1.27;1.02;;;43.80;17.20;;;;;;6253871;28;20783;-65
2021/10/01 13:08:24;;;;;;;1.67;1.35;;;41.50;18.90;;;;;;6253582;28;20238;-65
2021/10/01 13:11:28;;;;;;;1.42;1.17;;;40.30;19.60;;;;;;6253534;28;20231;-64
2021/10/01 13:14:31;;;;;;;2.00;1.30;;;41.30;18.70;;;;;;6253416;28;20437;-66
2021/10/01 13:17:35;;;;;;;2.20;0.90;;;41.40;19.20;;;;;;6253153;28;20242;-65
2021/10/01 13:20:40;;;;;;;2.65;2.10;;;40.40;19.70;;;;;;6253523;28;20232;-65
2021/10/01 13:23:46;;;;;;;1.70;0.90;;;40.90;19.70;;;;;;6252997;28;20228;-65
2021/10/01 13:26:49;;;;;;;1.50;1.05;;;38.90;20.90;;;;;;6253382;28;20246;-65
2021/10/01 13:29:52;;;;;;;1.50;1.38;;;36.30;23.10;;;;;;6253371;28;20224;-65
2021/10/01 13:32:58;;;;;;;2.03;1.13;;;34.20;24.80;;;;;;6250714;28;20260;-67
2021/10/01 13:36:02;;;;;;;3.67;1.40;;;32.60;26.60;;;;;;6252348;28;20231;-64
2021/10/01 13:39:05;;;;;;;2.27;1.50;;;31.10;28.50;;;;;;6251827;28;20306;-64
2021/10/01 13:42:09;;;;;;;2.07;1.63;;;29.40;30.90;;;;;;6252211;28;20652;-65
2021/10/01 13:45:14;;;;;;;1.90;1.40;;;28.40;32.50;;;;;;6252520;28;20245;-64
2021/10/01 13:48:18;;;;;;;2.40;1.90;;;27.60;34.10;;;;;;6252109;28;20208;-64
2021/10/01 13:51:22;;;;;;;2.10;1.67;;;26.90;35.50;;;;;;6251601;28;20566;-64
2021/10/01 13:54:25;;;;;;;2.23;1.60;;;25.90;36.80;;;;;;6252378;28;20245;-63
2021/10/01 13:57:29;;;;;;;1.60;1.50;;;25.20;38.70;;;;;;6252516;28;20667;-65
2021/10/01 14:00:33;;;;;;;1.63;1.53;;;24.30;40.60;;;;;;6252439;28;20239;-64
2021/10/01 14:03:37;;;;;;;1.50;1.40;;;23.80;41.70;;;;;;6252349;28;20228;-64
2021/10/01 14:06:40;;;;;;;1.80;1.20;;;23.60;42.70;;;;;;6252294;28;20232;-64
2021/10/01 14:09:44;;;;;;;1.70;1.60;;;23.10;43.60;;;;;;6252185;28;20235;-65
2021/10/01 14:13:00;;;;;;;1.37;1.27;;;23.00;44.10;;;;;;6252464;28;20236;-64
2021/10/01 14:16:04;;;;;;;1.20;0.97;;;22.90;44.60;;;;;;6252241;28;20235;-63
2021/10/01 14:19:09;;;;;;;2.20;1.67;;;22.90;44.80;;;;;;6252036;28;20232;-63
2021/10/01 14:22:12;;;;;;;2.67;1.60;;;22.80;44.50;;;;;;6251797;28;20266;-63
2021/10/01 14:25:22;;;;;;;1.63;1.23;;;22.60;44.90;;;;;;6251426;28;20252;-64
2021/10/01 14:28:26;;;;;;;2.70;1.40;;;22.40;45.40;;;;;;6251025;28;20232;-64
2021/10/01 14:31:30;;;;;;;1.43;1.30;;;22.40;45.70;;;;;;6251088;28;20271;-64
2021/10/01 14:34:34;;;;;;;1.63;1.53;;;22.20;46.30;;;;;;6251603;28;20310;-63
2021/10/01 14:37:38;;;;;;;1.63;1.53;;;22.00;46.70;;;;;;6251027;28;20623;-63
2021/10/01 14:40:42;;;;;;;2.30;1.10;;;21.80;48.00;;;;;;6251804;28;20247;-62
2021/10/01 14:44:06;;;;;;;2.53;1.80;;;21.80;47.90;;;;;;6251500;28;20323;-63
2021/10/01 14:47:09;;;;;;;3.43;1.53;;;21.70;48.20;;;;;;6251232;28;20243;-64
2021/10/01 14:50:14;;;;;;;2.57;1.20;;;21.60;48.40;;;;;;6250803;28;20254;-63
2021/10/01 14:53:18;;;;;;;3.70;1.87;;;21.50;48.60;;;;;;6251564;28;20692;-64
2021/10/01 14:56:21;;;;;;;2.40;1.53;;;21.50;49.00;;;;;;6251684;28;20338;-63
2021/10/01 14:59:24;;;;;;;1.87;1.70;;;21.30;49.50;;;;;;6251228;28;20240;-64
2021/10/01 15:02:27;;;;;;;3.53;1.57;;;21.00;50.30;;;;;;6251032;28;20678;-64
2021/10/01 15:05:32;;;;;;;2.40;1.83;;;20.90;50.80;;;;;;6250428;28;20682;-64
2021/10/01 15:08:35;;;;;;;5.43;2.37;;;20.80;51.20;;;;;;6250868;28;20238;-66
2021/10/01 15:11:39;;;;;;;2.30;2.10;;;20.70;51.70;;;;;;6251087;28;20240;-64
2021/10/01 15:14:42;;;;;;;2.80;1.83;;;20.60;52.00;;;;;;6250663;28;20567;-64
2021/10/01 15:17:45;;;;;;;1.87;1.77;;;20.50;52.40;;;;;;6250544;28;20239;-63
2021/10/01 15:20:50;;;;;;;2.20;1.97;;;20.50;53.10;;;;;;6250657;28;20243;-63
2021/10/01 15:23:53;;;;;;;2.77;2.40;;;20.40;53.70;;;;;;6250772;28;20232;-64
2021/10/01 15:26:57;;;;;;;2.30;2.10;;;20.10;54.70;;;;;;6249993;28;20236;-64
2021/10/01 15:30:12;;;;;;;2.90;1.60;;;19.90;55.90;;;;;;6250136;28;20251;-63
2021/10/01 15:33:16;;;;;;;2.53;2.33;;;19.80;56.50;;;;;;6250240;28;20617;-63
2021/10/01 15:36:22;;;;;;;3.53;2.70;;;19.80;57.50;;;;;;6250747;28;20200;-63
2021/10/01 15:39:26;;;;;;;2.80;2.60;;;19.70;58.00;;;;;;6250277;28;20343;-64
2021/10/01 15:42:29;;;;;;;4.87;3.27;;;19.70;59.10;;;;;;6250920;28;20247;-64
2021/10/01 15:45:33;;;;;;;2.60;2.40;;;19.60;60.10;;;;;;6250077;28;20228;-64
2021/10/01 15:48:37;;;;;;;3.07;2.77;;;19.50;61.10;;;;;;6249855;28;20239;-64
2021/10/01 15:51:42;;;;;;;3.67;2.80;;;19.50;61.90;;;;;;6249712;28;20232;-64
2021/10/01 15:54:47;;;;;;;5.03;3.30;;;19.50;62.60;;;;;;6249848;28;20553;-64
2021/10/01 15:57:51;;;;;;;3.00;2.70;;;19.40;62.80;;;;;;6250147;28;20228;-64
2021/10/01 16:00:54;;;;;;;2.90;2.60;;;19.50;63.80;;;;;;6249496;28;20232;-64
2021/10/01 16:03:57;;;;;;;2.47;2.33;;;19.40;64.60;;;;;;6249725;28;20252;-64
2021/10/01 16:07:01;;;;;;;3.30;3.00;;;19.40;65.30;;;;;;6249807;28;20246;-64
2021/10/01 16:10:07;;;;;;;3.00;2.80;;;19.40;66.00;;;;;;6250034;28;20552;-64
2021/10/01 16:13:11;;;;;;;2.90;2.40;;;19.30;66.60;;;;;;6250009;28;20228;-64
2021/10/01 16:16:14;;;;;;;3.43;3.13;;;19.20;67.80;;;;;;6250160;28;20231;-64
2021/10/01 16:19:18;;;;;;;3.60;3.20;;;19.20;68.50;;;;;;6253563;28;20228;-64
2021/10/01 16:22:23;;;;;;;3.50;3.27;;;19.20;69.30;;;;;;6254550;28;20564;-64
2021/10/01 16:25:28;;;;;;;4.00;3.20;;;19.00;69.70;;;;;;6254176;28;20251;-64
2021/10/01 16:28:31;;;;;;;4.57;4.17;;;19.10;70.10;;;;;;6254477;28;20243;-63
2021/10/01 16:31:37;;;;;;;3.13;2.93;;;19.00;70.80;;;;;;6254237;28;20239;-64
2021/10/01 16:34:40;;;;;;;3.83;3.43;;;18.90;71.70;;;;;;6253882;28;20251;-64
2021/10/01 16:37:45;;;;;;;3.60;3.30;;;18.80;72.80;;;;;;6254043;28;20243;-65
2021/10/01 16:40:48;;;;;;;3.50;3.20;;;18.60;74.50;;;;;;6254111;28;20320;-64
2021/10/01 16:43:51;;;;;;;4.17;3.77;;;18.40;76.20;;;;;;6254284;28;20665;-64
2021/10/01 16:46:55;;;;;;;4.57;3.70;;;18.20;77.90;;;;;;6254173;28;20228;-64
2021/10/01 16:49:59;;;;;;;4.03;3.37;;;18.10;79.20;;;;;;6254180;28;20470;-64
2021/10/01 16:53:03;;;;;;;4.03;3.73;;;18.00;80.60;;;;;;6253689;28;20247;-64
2021/10/01 16:56:06;;;;;;;4.90;4.50;;;17.80;82.00;;;;;;6253962;28;20482;-64
2021/10/01 16:59:10;;;;;;;5.33;4.83;;;17.60;83.60;;;;;;6244645;28;20486;-64
2021/10/01 17:02:13;;;;;;;7.00;5.33;;;17.50;85.50;;;;;;6253186;28;20605;-64
2021/10/01 17:05:16;;;;;;;6.07;5.60;;;17.40;86.80;;;;;;6252657;28;20913;-64
2021/10/01 17:08:21;;;;;;;5.47;4.97;;;17.50;87.70;;;;;;6253546;28;20482;-64
2021/10/01 17:11:24;;;;;;;4.57;4.17;;;17.50;88.30;;;;;;6253114;28;20475;-64
2021/10/01 17:14:27;;;;;;;5.30;4.87;;;17.50;89.00;;;;;;6253129;28;20471;-65
2021/10/01 17:17:31;;;;;;;4.50;4.10;;;17.40;89.70;;;;;;6252872;28;20478;-64
2021/10/01 17:20:34;;;;;;;3.80;3.50;;;17.40;90.30;;;;;;6253174;28;20491;-64
2021/10/01 17:23:38;;;;;;;3.60;3.23;;;17.40;90.90;;;;;;6252765;28;20557;-64
2021/10/01 17:26:42;;;;;;;4.03;3.27;;;17.40;90.80;;;;;;6253234;28;20482;-64
2021/10/01 17:29:53;;;;;;;4.23;3.90;;;17.40;91.00;;;;;;6252272;28;20485;-64
2021/10/01 17:32:57;;;;;;;4.60;3.50;;;17.30;91.20;;;;;;6252531;28;20483;-64